Alesund, Norway

1:29 PM CET on February 28, 2015 (GMT +0100)
Vigra | Change Station
CLOSE
Current Station
Airport
Location: Alesund,
Elevation: 72 ft
Nearby Weather Stations

Elev 72 ft 62.56 °N, 6.11 °E | Updated 9 minutes ago

Mostly Cloudy
Mostly Cloudy
45 °F
Feels Like 36 °F
N
21
Wind Variable Wind from SSW

Today
High -- | Low -- °F
--% Chance of Precip.
Yesterday
High -- | Low -- °F
Precip. -- in
7:43 AM 5:53 PM
Waxing Gibbous, 77% visible
Pressure 29.24 in
Visibility 6.2 miles
Clouds Few 3100 ft
Scattered Clouds 4900 ft
Mostly Cloudy 6100 ft
Windchill 36 °F
Dew Point 34 °F
Humidity 66%
Rainfall 0.00 in
Snow Depth Not available.
UV 1 out of 12
Pollen Not available.
Air Quality Not available.
Flu Activity Not available.
METAR ENAL 281220Z 20018KT 9999 FEW031 SCT049 BKN061 07/01 Q0990 REUP

More Conditions Fewer Conditions

Pressure 29.24 in
Visibility 6.2 miles
Clouds Few 3100 ft
Scattered Clouds 4900 ft
Mostly Cloudy 6100 ft
Windchill 36 °F
Dew Point 34 °F
Humidity 66%
Rainfall 0.00 in
Snow Depth Not available.
UV 1 out of 12
Pollen Not available.
Air Quality Not available.
Flu Activity Not available.
METAR ENAL 281220Z 20018KT 9999 FEW031 SCT049 BKN061 07/01 Q0990 REUP

More Conditions Fewer Conditions

10-Day Weather Forecast

Almanac

Astronomy

Feb. 28, 2015 Rise Set
Actual Time
Civil Twilight
Nautical Twilight
Astronomical Twilight
Moon
Length of Visible Light
Length of Day
Tomorrow will be .
, % of the Moon is Illuminated

Today's Extremes

Country Highs Country Lows

Community

WunderPhotos

Upload Photos

1,800,998 photos uploaded!

WunderBlogs® & News

Nearby

Air Quality

  Air Quality AQ Index Pollutant
Not available.

Snow Depth

Station Depth Elevation

Earthquake Activity

City Distance Mag. Time & Date
Minimum magnitude displayed is 2.5.

Coastal Water Temperatures

Place Temperature

Nearby Weather Stations